LIBP/PSR METAR and TAF weather

Enter ICAO airport designator
Station Type Date Time Source
LIBP METAR 2019/10/15 06:50 UTC NOAA

LIBP 150650Z 20003KT CAVOK 13/13 Q1018


Station Type Date Time Source
LIBP Decoded METAR 2019/10/15 06:50 UTC NOAA

Pescara, Italy (LIBP) 42-26N 014-12E 11M
Oct 15, 2019 - 02:50 AM EDT / 2019.10.15 0650 UTC
Wind: from the SSW (200 degrees) at 3 MPH (3 KT):0
Visibility: greater than 7 mile(s):0
Temperature: 55 F (13 C)
Dew Point: 55 F (13 C)
Relative Humidity: 100%
Pressure (altimeter): 30.06 in. Hg (1018 hPa)
ob: LIBP 150650Z 20003KT CAVOK 13/13 Q1018
cycle: 7

Station Type Date Time Source
LIBP TAF 2019/10/15 06:21 UTC NOAA

TAF LIBP 150500Z 1506/1606 VRB05KT 8000 SCT015
TEMPO 1506/1508 3000 BR
BECMG 1510/1512 12010KT
BECMG 1516/1518 VRB05KT

Example: see airport list